地図

経路データ

SID SEASON NUMBER BASIN SUBBASIN NAME ISO_TIME NATURE LAT LON WMO_WIND WMO_PRES WMO_AGENCY TRACK_TYPE DIST2LAND LANDFALL IFLAG USA_AGENCY USA_ATCF_ID USA_LAT USA_LON USA_RECORD USA_STATUS USA_WIND USA_PRES USA_SSHS USA_R34_NE USA_R34_SE USA_R34_SW USA_R34_NW USA_R50_NE USA_R50_SE USA_R50_SW USA_R50_NW USA_R64_NE USA_R64_SE USA_R64_SW USA_R64_NW USA_POCI USA_ROCI USA_RMW USA_EYE TOKYO_LAT TOKYO_LON TOKYO_GRADE TOKYO_WIND TOKYO_PRES TOKYO_R50_DIR TOKYO_R50_LONG TOKYO_R50_SHORT TOKYO_R30_DIR TOKYO_R30_LONG TOKYO_R30_SHORT TOKYO_LAND CMA_LAT CMA_LON CMA_CAT CMA_WIND CMA_PRES HKO_LAT HKO_LON HKO_CAT HKO_WIND HKO_PRES NEWDELHI_LAT NEWDELHI_LON NEWDELHI_GRADE NEWDELHI_WIND NEWDELHI_PRES NEWDELHI_CI NEWDELHI_DP NEWDELHI_POCI REUNION_LAT REUNION_LON REUNION_TYPE REUNION_WIND REUNION_PRES REUNION_TNUM REUNION_CI REUNION_RMW REUNION_R34_NE REUNION_R34_SE REUNION_R34_SW REUNION_R34_NW REUNION_R50_NE REUNION_R50_SE REUNION_R50_SW REUNION_R50_NW REUNION_R64_NE REUNION_R64_SE REUNION_R64_SW REUNION_R64_NW BOM_LAT BOM_LON BOM_TYPE BOM_WIND BOM_PRES BOM_TNUM BOM_CI BOM_RMW BOM_R34_NE BOM_R34_SE BOM_R34_SW BOM_R34_NW BOM_R50_NE BOM_R50_SE BOM_R50_SW BOM_R50_NW BOM_R64_NE BOM_R64_SE BOM_R64_SW BOM_R64_NW BOM_ROCI BOM_POCI BOM_EYE BOM_POS_METHOD BOM_PRES_METHOD NADI_LAT NADI_LON NADI_CAT NADI_WIND NADI_PRES WELLINGTON_LAT WELLINGTON_LON WELLINGTON_WIND WELLINGTON_PRES DS824_LAT DS824_LON DS824_STAGE DS824_WIND DS824_PRES TD9636_LAT TD9636_LON TD9636_STAGE TD9636_WIND TD9636_PRES TD9635_LAT TD9635_LON TD9635_WIND TD9635_PRES TD9635_ROCI NEUMANN_LAT NEUMANN_LON NEUMANN_CLASS NEUMANN_WIND NEUMANN_PRES MLC_LAT MLC_LON MLC_CLASS MLC_WIND MLC_PRES USA_GUST BOM_GUST BOM_GUST_PER REUNION_GUST REUNION_GUST_PER USA_SEAHGT USA_SEARAD_NE USA_SEARAD_SE USA_SEARAD_SW USA_SEARAD_NW STORM_SPEED STORM_DIR
1865042S12095 1865 5 SI WA NOT_NAMED 1865-02-11 06:00:00 NR -12.0000 94.6000 main 1233 1233 _____O________ -1 -12.0000 94.6000 99 9.90000 13 246
1865042S12095 1865 5 SI WA NOT_NAMED 1865-02-11 09:00:00 NR -12.2598 93.9986 main 1303 1303 _____P________ -1 -12.2598 93.9986 99 13 246
1865042S12095 1865 5 SI WA NOT_NAMED 1865-02-11 12:00:00 NR -12.5155 93.4020 main 1353 1353 _____P________ -1 -12.5155 93.4020 99 13 246
1865042S12095 1865 5 SI WA NOT_NAMED 1865-02-11 15:00:00 NR -12.7641 92.8171 main 1413 1413 _____P________ -1 -12.7641 92.8171 99 12 247
1865042S12095 1865 5 SI WA NOT_NAMED 1865-02-11 18:00:00 NR -13.0026 92.2504 main 1459 1459 _____P________ -1 -13.0026 92.2504 99 12 247
1865042S12095 1865 5 SI WA NOT_NAMED 1865-02-11 21:00:00 NR -13.2282 91.7086 main 1512 1512 _____P________ -1 -13.2282 91.7086 99 11 247
1865042S12095 1865 5 SI WA NOT_NAMED 1865-02-12 00:00:00 NR -13.4381 91.1985 main 1561 1561 _____P________ -1 -13.4381 91.1985 99 10 247
1865042S12095 1865 5 SI WA NOT_NAMED 1865-02-12 03:00:00 NR -13.6296 90.7267 main 1610 1610 _____P________ -1 -13.6296 90.7267 99 9 247
1865042S12095 1865 5 SI WA NOT_NAMED 1865-02-12 06:00:00 NR -13.8000 90.3000 main 1653 1653 _____O________ -1 -13.8000 90.3000 99 9.90000 8 248
1865042S12095 1865 5 SI MM NOT_NAMED 1865-02-12 09:00:00 NR -13.9485 89.9215 main 1687 1687 _____P________ -1 -13.9485 89.9215 99 8 248
1865042S12095 1865 5 SI MM NOT_NAMED 1865-02-12 12:00:00 NR -14.0815 89.5804 main 1725 1725 _____P________ -1 -14.0815 89.5804 99 7 248
1865042S12095 1865 5 SI MM NOT_NAMED 1865-02-12 15:00:00 NR -14.2070 89.2621 main 1753 1753 _____P________ -1 -14.2070 89.2621 99 7 248
1865042S12095 1865 5 SI MM NOT_NAMED 1865-02-12 18:00:00 NR -14.3331 88.9520 main 1782 1782 _____P________ -1 -14.3331 88.9520 99 7 247
1865042S12095 1865 5 SI MM NOT_NAMED 1865-02-12 21:00:00 NR -14.4676 88.6356 main 1827 1827 _____P________ -1 -14.4676 88.6356 99 7 246
1865042S12095 1865 5 SI MM NOT_NAMED 1865-02-13 00:00:00 NR -14.6185 88.2981 main 1856 1856 _____P________ -1 -14.6185 88.2981 99 8 245
1865042S12095 1865 5 SI MM NOT_NAMED 1865-02-13 03:00:00 NR -14.7934 87.9245 main 1901 1901 _____P________ -1 -14.7934 87.9245 99 9 244
1865042S12095 1865 5 SI MM NOT_NAMED 1865-02-13 06:00:00 NR -15.0000 87.5000 main 1946 1946 _____O________ -1 -15.0000 87.5000 99 9.90000 10 244
1865042S12095 1865 5 SI MM NOT_NAMED 1865-02-13 09:00:00 NR -15.2185 87.0163 main 1998 1998 _____P________ -1 -15.2185 87.0163 99 11 245
1865042S12095 1865 5 SI MM NOT_NAMED 1865-02-13 12:00:00 NR -15.4614 86.4899 main 2059 2059 _____P________ -1 -15.4614 86.4899 99 12 244
1865042S12095 1865 5 SI MM NOT_NAMED 1865-02-13 15:00:00 NR -15.7317 85.9206 main 2119 2119 _____P________ -1 -15.7317 85.9206 99 13 243
1865042S12095 1865 5 SI MM NOT_NAMED 1865-02-13 18:00:00 NR -16.0324 85.3077 main 2188 2188 _____P________ -1 -16.0324 85.3077 99 14 243
1865042S12095 1865 5 SI MM NOT_NAMED 1865-02-13 21:00:00 NR -16.3664 84.6503 main 2265 2265 _____P________ -1 -16.3664 84.6503 99 15 242
1865042S12095 1865 5 SI MM NOT_NAMED 1865-02-14 00:00:00 NR -16.7370 83.9475 main 2349 2349 _____P________ -1 -16.7370 83.9475 99 16 241
1865042S12095 1865 5 SI MM NOT_NAMED 1865-02-14 03:00:00 NR -17.1472 83.1979 main 2434 2434 _____P________ -1 -17.1472 83.1979 99 17 240
1865042S12095 1865 5 SI MM NOT_NAMED 1865-02-14 06:00:00 NR -17.6000 82.4000 main 2534 2498 _____O________ -1 -17.6000 82.4000 99 9.90000 19 239
1865042S12095 1865 5 SI MM NOT_NAMED 1865-02-14 09:00:00 NR -18.1466 81.4678 main 2498 2384 _____P________ -1 -18.1466 81.4678 99 22 238
1865042S12095 1865 5 SI MM NOT_NAMED 1865-02-14 12:00:00 NR -18.7437 80.4653 main 2384 2271 _____P________ -1 -18.7437 80.4653 99 23 238
1865042S12095 1865 5 SI MM NOT_NAMED 1865-02-14 15:00:00 NR -19.3714 79.4201 main 2259 2149 _____P________ -1 -19.3714 79.4201 99 24 237
1865042S12095 1865 5 SI MM NOT_NAMED 1865-02-14 18:00:00 NR -20.0099 78.3612 main 2149 2040 _____P________ -1 -20.0099 78.3612 99 24 237
1865042S12095 1865 5 SI MM NOT_NAMED 1865-02-14 21:00:00 NR -20.6400 77.3184 main 2030 1935 _____P________ -1 -20.6400 77.3184 99 23 237
1865042S12095 1865 5 SI MM NOT_NAMED 1865-02-15 00:00:00 NR -21.2434 76.3226 main 1924 1842 _____P________ -1 -21.2434 76.3226 99 21 237
1865042S12095 1865 5 SI MM NOT_NAMED 1865-02-15 03:00:00 NR -21.8023 75.4057 main 1832 1753 _____P________ -1 -21.8023 75.4057 99 19 237
1865042S12095 1865 5 SI MM NOT_NAMED 1865-02-15 06:00:00 NR -22.3000 74.6000 reunion main 1753 1696 _____O________ -1 -22.3000 74.6000 99 9.90000 16 236
1865042S12095 1865 5 SI MM NOT_NAMED 1865-02-15 09:00:00 NR -22.6899 73.9808 main 1696 1649 _____P________ -1 -22.6899 73.9808 99 13 235
1865042S12095 1865 5 SI MM NOT_NAMED 1865-02-15 12:00:00 NR -23.0297 73.4666 main 1649 1613 _____P________ -1 -23.0297 73.4666 99 11 234
1865042S12095 1865 5 SI MM NOT_NAMED 1865-02-15 15:00:00 NR -23.3268 73.0436 main 1603 1577 _____P________ -1 -23.3268 73.0436 99 9 232
1865042S12095 1865 5 SI MM NOT_NAMED 1865-02-15 18:00:00 NR -23.5878 72.6978 main 1579 1553 _____P________ -1 -23.5878 72.6978 99 8 229
1865042S12095 1865 5 SI MM NOT_NAMED 1865-02-15 21:00:00 NR -23.8195 72.4149 main 1553 1538 _____P________ -1 -23.8195 72.4149 99 6 227
1865042S12095 1865 5 SI MM NOT_NAMED 1865-02-16 00:00:00 NR -24.0280 72.1806 main 1538 1523 _____P________ -1 -24.0280 72.1806 99 6 225
1865042S12095 1865 5 SI MM NOT_NAMED 1865-02-16 03:00:00 NR -24.2196 71.9805 main 1523 1509 _____P________ -1 -24.2196 71.9805 99 5 223
1865042S12095 1865 5 SI MM NOT_NAMED 1865-02-16 06:00:00 NR -24.4000 71.8000 reunion main 1509 1496 _____O________ -1 -24.4000 71.8000 99 9.90000 5 222
1865042S12095 1865 5 SI MM NOT_NAMED 1865-02-16 09:00:00 NR -24.5743 71.6268 main 1496 1489 _____P________ -1 -24.5743 71.6268 99 5 222
1865042S12095 1865 5 SI MM NOT_NAMED 1865-02-16 12:00:00 NR -24.7440 71.4580 main 1489 1476 _____P________ -1 -24.7440 71.4580 99 5 222
1865042S12095 1865 5 SI MM NOT_NAMED 1865-02-16 15:00:00 NR -24.9097 71.2929 main 1476 1464 _____P________ -1 -24.9097 71.2929 99 4 222
1865042S12095 1865 5 SI MM NOT_NAMED 1865-02-16 18:00:00 NR -25.0720 71.1309 main 1464 1458 _____P________ -1 -25.0720 71.1309 99 4 222
1865042S12095 1865 5 SI MM NOT_NAMED 1865-02-16 21:00:00 NR -25.2315 70.9713 main 1458 1447 _____P________ -1 -25.2315 70.9713 99 4 222
1865042S12095 1865 5 SI MM NOT_NAMED 1865-02-17 00:00:00 NR -25.3890 70.8134 main 1447 1441 _____P________ -1 -25.3890 70.8134 99 4 222
1865042S12095 1865 5 SI MM NOT_NAMED 1865-02-17 03:00:00 NR -25.5449 70.6565 main 1441 1430 _____P________ -1 -25.5449 70.6565 99 4 222
1865042S12095 1865 5 SI MM NOT_NAMED 1865-02-17 06:00:00 NR -25.7000 70.5000 reunion main 1430 _____O________ -1 -25.7000 70.5000 99 9.90000 4 222

IBTrACS Databaseについて

本データベースは、米国NOAAが公開する1842年以降の世界の熱帯低気圧のベストトラックデータアーカイブInternational Best Track Archive for Climate Stewardship (IBTrACS)を、ウェブで閲覧しやすい形式に変換したものです。

最終更新日:2021-12-06